createdAt,value
2023-02-08T00:01:23.552Z,28.20
2023-02-08T00:03:25.514Z,23.92
2023-02-08T00:05:27.213Z,24.77
2023-02-08T00:07:28.984Z,24.17
2023-02-08T00:09:30.698Z,23.33
2023-02-08T00:11:32.259Z,22.58
2023-02-08T00:13:34.631Z,23.52
2023-02-08T00:15:41.309Z,24.65
2023-02-08T00:17:42.984Z,25.98
2023-02-08T00:19:44.589Z,27.15
2023-02-08T00:21:46.228Z,24.27
2023-02-08T00:23:48.301Z,23.45
2023-02-08T00:25:49.928Z,25.15
2023-02-08T00:27:51.695Z,25.40
2023-02-08T00:29:53.460Z,22.65
2023-02-08T00:31:55.145Z,23.58
2023-02-08T00:33:56.816Z,25.27
2023-02-08T00:36:00.013Z,23.10
2023-02-08T00:38:01.772Z,24.15
2023-02-08T00:40:05.836Z,22.83
2023-02-08T00:42:07.577Z,23.65
2023-02-08T00:44:09.321Z,22.25
2023-02-08T00:46:11.139Z,26.27
2023-02-08T00:48:12.811Z,22.50
2023-02-08T00:50:14.552Z,23.83
2023-02-08T00:52:16.299Z,22.27
2023-02-08T00:54:19.932Z,23.35
2023-02-08T00:56:21.827Z,23.60
2023-02-08T00:58:23.954Z,23.42
2023-02-08T01:00:25.593Z,25.70
2023-02-08T01:02:27.910Z,20.80
2023-02-08T01:04:29.610Z,23.92
2023-02-08T01:06:31.412Z,24.15
2023-02-08T01:08:33.211Z,25.60
2023-02-08T01:10:34.852Z,26.58
2023-02-08T01:12:36.495Z,24.45
2023-02-08T01:14:39.315Z,24.23
2023-02-08T01:16:41.042Z,25.02
2023-02-08T01:18:44.125Z,25.73
2023-02-08T01:20:45.707Z,23.70
2023-02-08T01:22:48.618Z,27.50
2023-02-08T01:24:50.301Z,28.50
2023-02-08T01:26:52.020Z,26.27
2023-02-08T01:28:54.954Z,27.23
2023-02-08T01:30:56.739Z,29.63
2023-02-08T01:32:58.411Z,24.80
2023-02-08T01:35:00.052Z,27.15
2023-02-08T01:37:01.756Z,24.70
2023-02-08T01:39:04.256Z,24.85
2023-02-08T01:41:08.233Z,25.33
2023-02-08T01:43:22.903Z,27.70
2023-02-08T01:45:30.812Z,26.73
2023-02-08T01:47:32.494Z,25.98
2023-02-08T01:49:35.491Z,28.80
2023-02-08T01:51:55.327Z,28.15
2023-02-08T01:53:58.017Z,28.67
2023-02-08T01:56:01.713Z,23.63
2023-02-08T01:58:06.120Z,28.38
2023-02-08T02:00:21.359Z,29.98
2023-02-08T02:02:23.655Z,27.02
2023-02-08T02:04:25.849Z,30.73
2023-02-08T02:06:31.705Z,30.10
2023-02-08T02:08:33.371Z,30.73
2023-02-08T02:10:38.210Z,29.20
2023-02-08T02:12:41.040Z,29.40
2023-02-08T02:14:43.168Z,30.45
2023-02-08T02:16:44.842Z,26.10
2023-02-08T02:18:46.767Z,31.42
2023-02-08T02:21:08.082Z,30.08
2023-02-08T02:23:46.037Z,31.92
2023-02-08T02:26:09.253Z,30.15
2023-02-08T02:28:59.831Z,34.30
2023-02-08T02:31:23.134Z,32.60
2023-02-08T02:34:02.266Z,33.17
2023-02-08T02:36:06.722Z,32.53
2023-02-08T02:38:18.480Z,35.25
2023-02-08T02:40:28.905Z,34.95
2023-02-08T02:43:17.397Z,35.08
2023-02-08T02:45:37.221Z,38.70
2023-02-08T02:47:46.186Z,34.40
2023-02-08T02:49:54.637Z,33.88
2023-02-08T02:52:07.445Z,33.50
2023-02-08T02:54:13.514Z,33.60
2023-02-08T02:56:43.991Z,33.83
2023-02-08T02:58:46.053Z,32.88
2023-02-08T03:00:58.470Z,35.42
2023-02-08T03:03:00.134Z,31.92
2023-02-08T03:05:01.771Z,36.35
2023-02-08T03:07:16.587Z,35.28
2023-02-08T03:09:38.387Z,35.50
2023-02-08T03:11:46.723Z,34.45
2023-02-08T03:14:04.874Z,35.45
2023-02-08T03:16:33.035Z,39.20
2023-02-08T03:18:39.617Z,38.17
2023-02-08T03:20:59.071Z,34.67
2023-02-08T03:23:15.858Z,39.58
2023-02-08T03:25:21.580Z,41.75
2023-02-08T03:27:34.607Z,36.75
2023-02-08T03:29:59.405Z,36.00
2023-02-08T03:32:04.626Z,36.88
2023-02-08T03:34:33.397Z,37.60
2023-02-08T03:36:58.364Z,38.88
2023-02-08T03:39:01.908Z,38.17
2023-02-08T03:41:06.712Z,37.92
2023-02-08T03:43:38.490Z,38.20
2023-02-08T03:45:43.570Z,39.70
2023-02-08T03:47:47.086Z,37.28
2023-02-08T03:49:52.313Z,42.03
2023-02-08T03:51:57.791Z,38.65
2023-02-08T03:54:01.450Z,37.20
2023-02-08T03:56:07.784Z,40.15
2023-02-08T03:58:17.935Z,40.40
2023-02-08T04:00:21.612Z,39.25
2023-02-08T04:02:27.192Z,40.35
2023-02-08T04:04:34.890Z,40.55
2023-02-08T04:06:36.478Z,39.05
2023-02-08T04:08:38.139Z,39.85
2023-02-08T04:10:40.140Z,38.40
2023-02-08T04:12:42.062Z,37.53
2023-02-08T04:14:43.666Z,39.75
2023-02-08T04:16:45.298Z,38.97
2023-02-08T04:18:46.958Z,37.35
2023-02-08T04:20:48.600Z,43.15
2023-02-08T04:22:50.254Z,38.63
2023-02-08T04:24:51.845Z,41.75
2023-02-08T04:26:53.705Z,40.80
2023-02-08T04:28:55.299Z,37.08
2023-02-08T04:30:57.299Z,41.17
2023-02-08T04:33:00.211Z,44.25
2023-02-08T04:35:01.847Z,46.63
2023-02-08T04:37:03.544Z,43.45
2023-02-08T04:39:05.263Z,40.42
2023-02-08T04:41:06.896Z,43.50
2023-02-08T04:43:08.662Z,46.85
2023-02-08T04:45:11.044Z,44.78
2023-02-08T04:47:12.634Z,40.95
2023-02-08T04:49:14.382Z,42.45
2023-02-08T04:51:16.166Z,41.45
2023-02-08T04:53:17.759Z,42.60
2023-02-08T04:55:19.403Z,42.97
2023-02-08T04:57:21.035Z,40.20
2023-02-08T04:59:22.767Z,41.35
2023-02-08T05:01:24.397Z,47.10
2023-02-08T05:03:26.150Z,45.63
2023-02-08T05:05:28.511Z,49.38
2023-02-08T05:07:30.265Z,45.03
2023-02-08T05:09:31.884Z,42.60
2023-02-08T05:11:33.633Z,45.15
2023-02-08T05:13:35.227Z,48.60
2023-02-08T05:15:36.876Z,44.88
2023-02-08T05:17:38.967Z,45.08
2023-02-08T05:19:40.618Z,44.53
2023-02-08T05:21:42.248Z,47.88
2023-02-08T05:23:46.586Z,47.05
2023-02-08T05:25:48.387Z,46.60
2023-02-08T05:27:50.153Z,50.83
2023-02-08T05:29:51.850Z,49.40
2023-02-08T05:31:53.460Z,49.55
2023-02-08T05:33:55.112Z,45.47
2023-02-08T05:35:56.735Z,45.72
2023-02-08T05:37:58.349Z,45.28
2023-02-08T05:40:00.106Z,43.67
2023-02-08T05:42:01.751Z,43.30
2023-02-08T05:44:03.392Z,46.70
2023-02-08T05:46:05.182Z,46.40
2023-02-08T05:48:06.822Z,43.08
2023-02-08T05:50:09.190Z,40.75
2023-02-08T05:52:10.820Z,41.58
2023-02-08T05:54:12.516Z,36.60
2023-02-08T05:56:14.165Z,42.75
2023-02-08T05:58:16.307Z,37.40
2023-02-08T06:00:17.985Z,40.20
2023-02-08T06:02:19.581Z,41.10
2023-02-08T06:04:21.253Z,41.42
2023-02-08T06:06:22.881Z,47.70
2023-02-08T06:08:24.507Z,48.30
2023-02-08T06:10:26.183Z,43.60
2023-02-08T06:12:27.802Z,47.72
2023-02-08T06:14:29.527Z,49.92
2023-02-08T06:16:31.236Z,45.25
2023-02-08T06:18:32.914Z,40.38
2023-02-08T06:20:34.706Z,45.33
2023-02-08T06:22:36.449Z,38.67
2023-02-08T06:24:38.083Z,45.70
2023-02-08T06:26:39.800Z,48.60
2023-02-08T06:28:41.523Z,47.25
2023-02-08T06:30:43.665Z,40.05
2023-02-08T06:32:45.456Z,45.75
2023-02-08T06:34:48.366Z,50.67
2023-02-08T06:36:50.091Z,44.95
2023-02-08T06:38:51.733Z,49.50
2023-02-08T06:40:53.432Z,47.38
2023-02-08T06:42:55.136Z,56.90
2023-02-08T06:44:58.104Z,47.50
2023-02-08T06:47:00.007Z,48.63
2023-02-08T06:49:01.634Z,45.83
2023-02-08T06:51:03.509Z,44.13
2023-02-08T06:53:05.160Z,44.17
2023-02-08T06:55:07.036Z,49.97
2023-02-08T06:57:08.815Z,41.63
2023-02-08T06:59:10.470Z,47.80
2023-02-08T07:01:13.624Z,36.58
2023-02-08T07:03:17.543Z,50.20
2023-02-08T07:07:20.986Z,44.20
2023-02-08T07:09:22.626Z,43.72
2023-02-08T07:11:24.269Z,43.17
2023-02-08T07:13:25.998Z,34.95
2023-02-08T07:15:27.728Z,42.03
2023-02-08T07:17:29.335Z,36.08
2023-02-08T07:19:31.506Z,35.60
2023-02-08T07:21:33.137Z,39.28
2023-02-08T07:23:34.789Z,42.17
2023-02-08T07:25:36.400Z,40.85
2023-02-08T07:27:38.099Z,36.80
2023-02-08T07:29:40.126Z,41.53
2023-02-08T07:31:41.906Z,37.33
2023-02-08T07:33:43.825Z,33.63
2023-02-08T07:35:45.416Z,33.28
2023-02-08T07:37:47.214Z,32.42
2023-02-08T07:39:48.853Z,33.58
2023-02-08T07:41:50.479Z,27.23
2023-02-08T07:43:52.174Z,30.20
2023-02-08T07:45:53.881Z,34.65
2023-02-08T07:47:55.486Z,29.35
2023-02-08T07:49:57.226Z,31.13
2023-02-08T07:52:00.179Z,36.63
2023-02-08T07:54:01.985Z,32.67
2023-02-08T07:56:03.946Z,34.72
2023-02-08T07:58:05.641Z,31.40
2023-02-08T08:00:08.010Z,34.20
2023-02-08T08:02:09.838Z,32.25
2023-02-08T08:04:11.697Z,33.97
2023-02-08T08:06:13.439Z,31.27
2023-02-08T08:08:15.110Z,31.67
2023-02-08T08:10:16.776Z,33.15
2023-02-08T08:12:18.538Z,32.33
2023-02-08T08:14:20.302Z,34.05
2023-02-08T08:16:22.622Z,30.83
2023-02-08T08:18:24.324Z,33.97
2023-02-08T08:20:26.131Z,34.90
2023-02-08T08:22:27.928Z,34.22
2023-02-08T08:24:31.764Z,28.75
2023-02-08T08:28:34.997Z,32.42
2023-02-08T08:30:36.683Z,35.67
2023-02-08T08:32:38.512Z,34.28
2023-02-08T08:34:40.272Z,29.15
2023-02-08T08:36:41.956Z,31.45
2023-02-08T08:38:43.679Z,32.03
2023-02-08T08:40:45.247Z,29.08
2023-02-08T08:42:46.802Z,38.65
2023-02-08T08:44:48.439Z,32.83
2023-02-08T08:46:50.084Z,35.60
2023-02-08T08:48:52.174Z,32.58
2023-02-08T08:50:55.122Z,33.78
2023-02-08T08:52:56.806Z,33.73
2023-02-08T08:54:58.447Z,49.53
2023-02-08T08:57:00.114Z,32.22
2023-02-08T08:59:01.761Z,34.60
2023-02-08T09:01:03.636Z,30.40
2023-02-08T09:03:05.351Z,30.98
2023-02-08T09:05:08.271Z,35.92
2023-02-08T09:07:10.624Z,35.20
2023-02-08T09:09:12.478Z,32.13
2023-02-08T09:11:15.384Z,29.15
2023-02-08T09:13:19.894Z,29.65
2023-02-08T09:15:21.623Z,27.15
2023-02-08T09:17:23.235Z,24.48
2023-02-08T09:19:24.935Z,20.38
2023-02-08T09:21:26.740Z,25.33
2023-02-08T09:23:28.480Z,26.05
2023-02-08T09:25:30.065Z,32.75
2023-02-08T09:27:31.700Z,29.25
2023-02-08T09:29:33.865Z,37.55
2023-02-08T09:31:38.032Z,25.98
2023-02-08T09:33:39.806Z,22.30
2023-02-08T09:35:41.846Z,22.65
2023-02-08T09:37:43.602Z,28.10
2023-02-08T09:39:45.652Z,23.45
2023-02-08T09:41:47.725Z,29.17
2023-02-08T09:44:20.307Z,22.23
2023-02-08T09:46:24.764Z,24.40
2023-02-08T09:48:35.166Z,25.23
2023-02-08T09:50:41.135Z,25.13
2023-02-08T09:52:47.859Z,25.67
2023-02-08T09:54:52.941Z,21.55
2023-02-08T09:56:54.988Z,22.33
2023-02-08T09:58:57.964Z,24.95
2023-02-08T10:01:00.229Z,21.97
2023-02-08T10:03:02.888Z,24.42
2023-02-08T10:05:11.197Z,19.40
2023-02-08T10:07:12.943Z,22.02
2023-02-08T10:09:15.371Z,17.42
2023-02-08T10:11:41.084Z,19.90
2023-02-08T10:14:10.237Z,26.00
2023-02-08T10:16:16.880Z,27.27
2023-02-08T10:18:24.977Z,18.38
2023-02-08T10:20:57.808Z,21.02
2023-02-08T10:23:21.880Z,20.00
2023-02-08T10:25:23.921Z,24.30
2023-02-08T10:27:40.845Z,18.58
2023-02-08T10:29:58.707Z,19.17
2023-02-08T10:32:15.357Z,19.73
2023-02-08T10:34:36.924Z,19.08
2023-02-08T10:36:45.587Z,18.67
2023-02-08T10:38:50.502Z,17.42
2023-02-08T10:41:09.672Z,21.73
2023-02-08T10:43:34.338Z,21.25
2023-02-08T10:45:49.159Z,17.20
2023-02-08T10:48:02.234Z,17.23
2023-02-08T10:50:45.674Z,19.02
2023-02-08T10:52:51.921Z,22.88
2023-02-08T10:54:56.158Z,15.82
2023-02-08T10:57:03.374Z,15.68
2023-02-08T10:59:23.028Z,17.70
2023-02-08T11:01:25.946Z,14.18
2023-02-08T11:03:39.771Z,15.40
2023-02-08T11:05:46.677Z,16.55
2023-02-08T11:07:59.373Z,19.08
2023-02-08T11:10:14.960Z,16.65
2023-02-08T11:12:22.999Z,23.25
2023-02-08T11:14:47.619Z,21.13
2023-02-08T11:19:04.693Z,21.80
2023-02-08T11:21:13.912Z,28.42
2023-02-08T11:23:29.081Z,18.55
2023-02-08T11:25:37.509Z,21.13
2023-02-08T11:27:50.610Z,16.90
2023-02-08T11:30:19.486Z,17.13
2023-02-08T11:32:21.351Z,23.15
2023-02-08T11:34:30.286Z,17.08
2023-02-08T11:36:34.244Z,19.35
2023-02-08T11:38:37.351Z,20.00
2023-02-08T11:40:45.404Z,25.67
2023-02-08T11:42:49.818Z,19.90
2023-02-08T11:44:54.390Z,19.40
2023-02-08T11:47:01.542Z,19.60
2023-02-08T11:49:03.744Z,20.13
2023-02-08T11:51:05.946Z,19.55
2023-02-08T11:53:21.338Z,18.17
2023-02-08T11:55:29.904Z,18.40
2023-02-08T11:57:33.252Z,18.88
2023-02-08T11:59:34.854Z,18.77
2023-02-08T12:01:38.579Z,15.35
2023-02-08T12:03:40.708Z,17.35
2023-02-08T12:06:07.996Z,17.02
2023-02-08T12:08:24.010Z,19.63
2023-02-08T12:10:58.165Z,17.92
2023-02-08T12:13:22.098Z,15.73
2023-02-08T12:15:58.275Z,18.38
2023-02-08T12:18:12.321Z,16.25
2023-02-08T12:20:26.038Z,17.10
2023-02-08T12:22:29.467Z,17.55
2023-02-08T12:24:30.987Z,15.85
2023-02-08T12:27:03.681Z,18.92
2023-02-08T12:29:45.694Z,18.38
2023-02-08T12:32:00.874Z,18.30
2023-02-08T12:38:03.780Z,15.98
2023-02-08T12:40:30.151Z,17.83
2023-02-08T12:42:41.276Z,17.15
2023-02-08T12:45:07.664Z,15.77
2023-02-08T12:47:27.705Z,15.82
2023-02-08T12:49:42.517Z,11.70
2023-02-08T12:51:47.208Z,14.43
2023-02-08T12:54:00.856Z,14.20
2023-02-08T12:56:07.148Z,15.63
2023-02-08T12:58:31.267Z,14.75
2023-02-08T13:00:35.163Z,18.15
2023-02-08T13:04:49.501Z,12.38
2023-02-08T13:06:58.489Z,13.05
2023-02-08T13:09:08.689Z,11.85
2023-02-08T13:11:33.362Z,10.85
2023-02-08T13:15:46.116Z,14.70
2023-02-08T13:18:13.305Z,14.63
2023-02-08T13:20:32.523Z,13.82
2023-02-08T13:22:39.954Z,12.18
2023-02-08T13:24:44.245Z,13.77
2023-02-08T13:26:45.803Z,10.02
2023-02-08T13:28:50.087Z,15.70
2023-02-08T13:31:01.016Z,9.35
2023-02-08T13:33:30.375Z,12.90
2023-02-08T13:35:32.515Z,10.18
2023-02-08T13:37:35.308Z,11.45
2023-02-08T13:39:42.768Z,11.63
2023-02-08T13:41:54.424Z,14.15
2023-02-08T13:44:04.432Z,12.95
2023-02-08T13:46:06.646Z,10.90
2023-02-08T13:48:11.685Z,10.50
2023-02-08T13:50:48.636Z,10.95
2023-02-08T13:52:51.594Z,13.48
2023-02-08T13:55:35.884Z,12.20
2023-02-08T13:57:54.923Z,12.45
2023-02-08T14:00:26.329Z,11.02
2023-02-08T14:02:28.827Z,11.13
2023-02-08T14:04:33.988Z,15.40
2023-02-08T14:06:43.586Z,13.00
2023-02-08T14:09:07.237Z,20.48
2023-02-08T14:11:11.775Z,12.07
2023-02-08T14:13:32.882Z,13.70
2023-02-08T14:15:37.700Z,13.27
2023-02-08T14:17:46.487Z,11.60
2023-02-08T14:20:00.395Z,14.40
2023-02-08T14:22:15.841Z,13.05
2023-02-08T14:24:23.617Z,14.52
2023-02-08T14:26:25.352Z,14.63
2023-02-08T14:28:29.732Z,16.10
2023-02-08T14:30:33.421Z,18.27
2023-02-08T14:32:39.683Z,18.25
2023-02-08T14:34:41.476Z,12.65
2023-02-08T14:36:43.198Z,15.77
2023-02-08T14:38:47.594Z,14.07
2023-02-08T14:40:58.749Z,14.35
2023-02-08T14:43:25.408Z,14.77
2023-02-08T14:45:35.400Z,17.30
2023-02-08T14:47:39.702Z,14.77
2023-02-08T14:49:45.524Z,15.48
2023-02-08T14:51:52.075Z,16.20
2023-02-08T14:54:04.742Z,17.88
2023-02-08T14:56:33.969Z,16.35
2023-02-08T14:58:38.246Z,16.50
2023-02-08T15:00:40.088Z,16.27
2023-02-08T15:02:45.073Z,17.52
2023-02-08T15:04:47.505Z,16.77
2023-02-08T15:07:14.828Z,16.73
2023-02-08T15:09:19.181Z,14.13
2023-02-08T15:11:27.247Z,15.63
2023-02-08T15:13:29.676Z,15.38
2023-02-08T15:15:34.262Z,17.00
2023-02-08T15:17:40.809Z,15.73
2023-02-08T15:19:43.260Z,16.30
2023-02-08T15:21:44.998Z,17.02
2023-02-08T15:24:00.341Z,17.65
2023-02-08T15:26:19.436Z,18.08
2023-02-08T15:28:23.934Z,19.13
2023-02-08T15:30:36.221Z,18.27
2023-02-08T15:32:40.457Z,15.35
2023-02-08T15:34:47.179Z,28.67
2023-02-08T15:36:51.604Z,18.48
2023-02-08T15:38:54.355Z,16.27
2023-02-08T15:41:12.011Z,17.10
2023-02-08T15:43:13.731Z,18.85
2023-02-08T15:45:27.073Z,15.68
2023-02-08T15:47:31.931Z,13.57
2023-02-08T15:49:38.384Z,13.77
2023-02-08T15:51:40.206Z,14.60
2023-02-08T15:53:44.274Z,13.77
2023-02-08T15:55:49.382Z,13.82
2023-02-08T15:58:09.639Z,16.05
2023-02-08T16:00:14.590Z,14.95
2023-02-08T16:02:22.098Z,15.70
2023-02-08T16:04:24.835Z,21.48
2023-02-08T16:06:29.291Z,17.40
2023-02-08T16:08:33.530Z,17.15
2023-02-08T16:10:44.817Z,17.88
2023-02-08T16:12:51.948Z,14.85
2023-02-08T16:14:57.069Z,14.13
2023-02-08T16:16:58.883Z,17.63
2023-02-08T16:19:20.245Z,16.13
2023-02-08T16:21:24.596Z,16.27
2023-02-08T16:23:34.548Z,14.48
2023-02-08T16:25:49.763Z,15.07
2023-02-08T16:27:51.517Z,13.70
2023-02-08T16:29:53.538Z,17.48
2023-02-08T16:32:40.049Z,16.30
2023-02-08T16:34:41.683Z,14.70
2023-02-08T16:36:46.601Z,13.27
2023-02-08T16:39:14.179Z,12.48
2023-02-08T16:41:19.194Z,16.08
2023-02-08T16:43:29.112Z,12.90
2023-02-08T16:45:30.769Z,15.20
2023-02-08T16:47:46.051Z,14.95
2023-02-08T16:49:49.623Z,14.82
2023-02-08T16:51:53.462Z,13.15
2023-02-08T16:53:56.913Z,13.70
2023-02-08T16:55:59.465Z,14.95
2023-02-08T16:58:01.178Z,12.85
2023-02-08T17:00:03.205Z,16.50
2023-02-08T17:02:11.140Z,15.55
2023-02-08T17:04:12.824Z,15.85
2023-02-08T17:06:35.360Z,16.73
2023-02-08T17:08:37.570Z,17.52
2023-02-08T17:10:39.221Z,15.98
2023-02-08T17:12:40.840Z,20.38
2023-02-08T17:14:42.403Z,24.92
2023-02-08T17:16:44.179Z,29.98
2023-02-08T17:18:47.021Z,35.30
2023-02-08T17:20:48.672Z,23.52
2023-02-08T17:22:51.269Z,28.60
2023-02-08T17:24:52.902Z,32.20
2023-02-08T17:26:54.865Z,23.20
2023-02-08T17:28:59.345Z,59.20
2023-02-08T17:31:01.184Z,43.90
2023-02-08T17:33:04.297Z,21.63
2023-02-08T17:35:06.194Z,37.35
2023-02-08T17:37:08.820Z,34.60
2023-02-08T17:39:10.767Z,35.42
2023-02-08T17:41:18.069Z,24.00
2023-02-08T17:43:19.810Z,22.60
2023-02-08T17:45:21.574Z,24.65
2023-02-08T17:47:23.210Z,21.05
2023-02-08T17:49:24.813Z,16.95
2023-02-08T17:51:26.416Z,18.20
2023-02-08T17:53:28.019Z,19.27
2023-02-08T17:55:29.649Z,22.40
2023-02-08T17:57:36.434Z,23.77
2023-02-08T17:59:41.060Z,18.42
2023-02-08T18:01:44.513Z,23.08
2023-02-08T18:03:47.379Z,21.42
2023-02-08T18:05:55.806Z,20.63
2023-02-08T18:07:57.473Z,21.00
2023-02-08T18:09:59.101Z,24.90
2023-02-08T18:12:00.890Z,20.70
2023-02-08T18:14:02.561Z,18.38
2023-02-08T18:16:15.182Z,19.65
2023-02-08T18:18:18.326Z,26.85
2023-02-08T18:20:20.058Z,17.52
2023-02-08T18:22:22.884Z,19.58
2023-02-08T18:24:25.723Z,18.50
2023-02-08T18:26:27.384Z,18.77
2023-02-08T18:28:29.079Z,17.83
2023-02-08T18:30:31.017Z,19.10
2023-02-08T18:32:32.585Z,17.48
2023-02-08T18:34:34.508Z,19.02
2023-02-08T18:36:36.651Z,28.95
2023-02-08T18:38:46.295Z,23.88
2023-02-08T18:40:47.927Z,17.65
2023-02-08T18:42:49.864Z,19.52
2023-02-08T18:44:51.721Z,17.67
2023-02-08T18:46:53.467Z,18.73
2023-02-08T18:48:55.800Z,17.35
2023-02-08T18:50:59.473Z,22.48
2023-02-08T18:53:01.136Z,18.90
2023-02-08T18:55:02.873Z,17.95
2023-02-08T18:57:06.268Z,19.25
2023-02-08T18:59:08.164Z,22.75
2023-02-08T19:01:16.100Z,29.23
2023-02-08T19:03:18.876Z,20.35
2023-02-08T19:05:20.502Z,21.48
2023-02-08T19:07:22.069Z,21.20
2023-02-08T19:09:23.652Z,21.17
2023-02-08T19:11:34.244Z,19.77
2023-02-08T19:13:35.805Z,23.63
2023-02-08T19:15:38.404Z,21.20
2023-02-08T19:17:40.117Z,19.67
2023-02-08T19:19:42.087Z,22.92
2023-02-08T19:21:43.750Z,23.55
2023-02-08T19:23:52.359Z,22.08
2023-02-08T19:25:54.025Z,22.83
2023-02-08T19:27:56.026Z,18.00
2023-02-08T19:29:57.722Z,25.13
2023-02-08T19:31:59.404Z,23.10
2023-02-08T19:34:02.630Z,25.80
2023-02-08T19:36:09.084Z,24.50
2023-02-08T19:38:10.818Z,24.10
2023-02-08T19:40:12.828Z,24.40
2023-02-08T19:42:14.465Z,24.77
2023-02-08T19:44:17.887Z,22.35
2023-02-08T19:46:22.409Z,25.63
2023-02-08T19:48:24.782Z,23.70
2023-02-08T19:50:26.445Z,25.33
2023-02-08T19:52:28.179Z,30.17
2023-02-08T19:54:29.906Z,21.92
2023-02-08T19:56:33.848Z,28.33
2023-02-08T19:58:36.534Z,24.65
2023-02-08T20:00:38.155Z,21.95
2023-02-08T20:02:39.865Z,23.52
2023-02-08T20:04:41.658Z,23.85
2023-02-08T20:06:45.077Z,26.27
2023-02-08T20:08:47.469Z,26.08
2023-02-08T20:10:49.219Z,27.60
2023-02-08T20:12:50.833Z,26.92
2023-02-08T20:14:52.609Z,29.90
2023-02-08T20:16:54.500Z,30.13
2023-02-08T20:18:56.329Z,25.80
2023-02-08T20:21:04.532Z,26.90
2023-02-08T20:23:21.764Z,25.90
2023-02-08T20:25:24.515Z,35.60
2023-02-08T20:27:32.147Z,26.58
2023-02-08T20:29:33.874Z,29.42
2023-02-08T20:31:37.575Z,28.23
2023-02-08T20:33:39.445Z,26.63
2023-02-08T20:35:41.245Z,24.25
2023-02-08T20:37:43.202Z,37.85
2023-02-08T20:39:44.866Z,28.65
2023-02-08T20:41:47.745Z,27.27
2023-02-08T20:43:49.578Z,24.73
2023-02-08T20:45:51.224Z,24.67
2023-02-08T20:47:52.825Z,25.10
2023-02-08T20:49:54.430Z,28.33
2023-02-08T20:51:56.251Z,24.02
2023-02-08T20:53:59.760Z,24.17
2023-02-08T20:56:06.161Z,26.35
2023-02-08T20:58:08.126Z,34.70
2023-02-08T21:00:10.561Z,32.47
2023-02-08T21:02:22.743Z,31.83
2023-02-08T21:04:24.475Z,32.58
2023-02-08T21:06:31.318Z,39.33
2023-02-08T21:08:33.025Z,69.00
2023-02-08T21:10:37.872Z,43.35
2023-02-08T21:12:39.512Z,32.85
2023-02-08T21:14:43.176Z,37.72
2023-02-08T21:16:46.397Z,41.97
2023-02-08T21:18:48.215Z,39.53
2023-02-08T21:20:50.055Z,34.63
2023-02-08T21:22:51.670Z,36.78
2023-02-08T21:24:53.322Z,42.00
2023-02-08T21:26:56.284Z,36.92
2023-02-08T21:28:58.886Z,39.17
2023-02-08T21:31:02.428Z,33.80
2023-02-08T21:33:04.207Z,34.00
2023-02-08T21:35:06.323Z,30.85
2023-02-08T21:37:07.915Z,33.50
2023-02-08T21:39:09.643Z,32.75
2023-02-08T21:41:17.393Z,28.52
2023-02-08T21:43:19.016Z,31.83
2023-02-08T21:45:20.590Z,29.65
2023-02-08T21:47:22.246Z,31.38
2023-02-08T21:49:42.112Z,49.45
2023-02-08T21:52:02.809Z,58.05
2023-02-08T21:54:23.784Z,61.53
2023-02-08T21:56:25.420Z,59.13
2023-02-08T21:58:27.110Z,56.67
2023-02-08T22:00:28.773Z,49.83
2023-02-08T22:02:30.859Z,51.15
2023-02-08T22:04:33.855Z,52.03
2023-02-08T22:06:50.743Z,51.70
2023-02-08T22:08:52.352Z,49.20
2023-02-08T22:10:58.461Z,52.72
2023-02-08T22:13:00.573Z,50.42
2023-02-08T22:15:02.265Z,50.03
2023-02-08T22:17:03.920Z,43.28
2023-02-08T22:19:06.096Z,51.90
2023-02-08T22:21:08.650Z,45.17
2023-02-08T22:23:10.195Z,38.42
2023-02-08T22:25:12.184Z,42.05
2023-02-08T22:27:13.832Z,44.83
2023-02-08T22:29:15.401Z,43.08
2023-02-08T22:31:17.295Z,41.45
2023-02-08T22:33:19.033Z,41.40
2023-02-08T22:35:20.652Z,37.88
2023-02-08T22:37:22.291Z,36.72
2023-02-08T22:39:24.143Z,38.22
2023-02-08T22:41:25.782Z,39.25
2023-02-08T22:43:28.974Z,38.28
2023-02-08T22:45:30.690Z,37.05
2023-02-08T22:47:33.398Z,41.55
2023-02-08T22:49:35.728Z,37.22
2023-02-08T22:51:37.866Z,40.42
2023-02-08T22:53:39.912Z,38.38
2023-02-08T22:55:47.489Z,38.15
2023-02-08T22:57:49.122Z,45.58
2023-02-08T22:59:50.800Z,41.53
2023-02-08T23:01:52.453Z,43.35
2023-02-08T23:03:54.332Z,44.88
2023-02-08T23:05:56.119Z,37.22
2023-02-08T23:07:57.686Z,39.70
2023-02-08T23:09:59.254Z,43.88
2023-02-08T23:12:01.128Z,39.80
2023-02-08T23:14:02.739Z,43.65
2023-02-08T23:16:04.629Z,45.45
2023-02-08T23:18:07.813Z,49.55
2023-02-08T23:20:10.025Z,51.88
2023-02-08T23:22:11.616Z,50.70
2023-02-08T23:24:13.271Z,48.47
2023-02-08T23:26:17.719Z,45.85
2023-02-08T23:28:19.348Z,44.65
2023-02-08T23:30:21.036Z,43.35
2023-02-08T23:32:22.627Z,46.67
2023-02-08T23:34:24.225Z,42.85
2023-02-08T23:36:25.949Z,45.67
2023-02-08T23:38:27.663Z,44.50
2023-02-08T23:40:29.280Z,41.38
2023-02-08T23:42:30.867Z,41.92
2023-02-08T23:44:32.430Z,45.60
2023-02-08T23:46:34.187Z,51.58
2023-02-08T23:48:37.851Z,48.55
2023-02-08T23:50:40.745Z,48.58
2023-02-08T23:52:42.291Z,45.38
2023-02-08T23:54:43.897Z,48.85
2023-02-08T23:56:45.550Z,51.17
2023-02-08T23:58:48.871Z,47.13
